Time,TemperatureF,DewpointF,PressureIn,WindDirection,WindDirectionDegrees,WindSpeedMPH,WindSpeedGustMPH,Humidity,HourlyPrecipIn,Conditions,Clouds,dailyrainin,SoftwareType,DateUTC
2013-01-09 00:04:00,58.6,57.8,30.06,NE,50,3.0,3.0,97,0.00,,,0.00,Wunderground v.1.15,2013-01-09 06:04:00,
2013-01-09 00:10:00,58.6,57.8,30.06,ENE,75,2.0,2.0,97,0.00,,,0.00,Wunderground v.1.15,2013-01-09 06:10:00,
2013-01-09 00:15:00,58.6,57.8,30.05,ESE,112,1.0,2.0,97,0.00,,,0.01,Wunderground v.1.15,2013-01-09 06:15:00,
2013-01-09 00:20:00,58.5,57.7,30.05,ENE,67,1.0,1.0,97,0.13,,,0.02,Wunderground v.1.15,2013-01-09 06:20:00,
2013-01-09 00:26:00,58.6,57.8,30.06,ENE,76,0.0,5.0,97,0.11,,,0.03,Wunderground v.1.15,2013-01-09 06:26:00,
2013-01-09 00:31:00,58.6,57.8,30.06,North,349,1.0,2.0,97,0.06,,,0.03,Wunderground v.1.15,2013-01-09 06:31:00,
2013-01-09 00:36:00,58.6,57.8,30.07,NE,55,2.0,3.0,97,0.04,,,0.03,Wunderground v.1.15,2013-01-09 06:36:00,
2013-01-09 00:41:00,58.6,57.8,30.07,NW,324,2.0,2.0,97,0.00,,,0.03,Wunderground v.1.15,2013-01-09 06:41:00,
2013-01-09 00:46:00,58.6,57.8,30.08,NE,50,1.0,2.0,97,0.46,,,0.05,Wunderground v.1.15,2013-01-09 06:46:00,
2013-01-09 00:52:00,58.6,57.8,30.09,ESE,105,1.0,2.0,97,0.08,,,0.05,Wunderground v.1.15,2013-01-09 06:52:00,
2013-01-09 00:58:00,58.6,57.8,30.08,WNW,283,0.0,3.0,97,0.04,,,0.05,Wunderground v.1.15,2013-01-09 06:58:00,
2013-01-09 01:03:00,58.6,57.8,30.08,NE,48,2.0,3.0,97,0.04,,,0.06,Wunderground v.1.15,2013-01-09 07:03:00,
2013-01-09 01:08:00,58.6,57.8,30.08,NNE,22,0.0,3.0,97,0.13,,,0.07,Wunderground v.1.15,2013-01-09 07:08:00,
2013-01-09 01:13:00,58.5,57.7,30.07,East,85,0.0,1.0,97,0.14,,,0.08,Wunderground v.1.15,2013-01-09 07:13:00,
2013-01-09 01:18:00,58.5,57.7,30.07,East,101,0.0,1.0,97,0.11,,,0.09,Wunderground v.1.15,2013-01-09 07:18:00,
2013-01-09 01:23:00,58.5,57.7,30.08,ESE,112,0.0,1.0,97,0.07,,,0.09,Wunderground v.1.15,2013-01-09 07:23:00,
2013-01-09 01:28:00,58.5,57.7,30.08,NW,318,0.0,1.0,97,0.05,,,0.09,Wunderground v.1.15,2013-01-09 07:28:00,
2013-01-09 01:34:00,58.6,57.8,30.08,NE,49,0.0,0.0,97,0.00,,,0.10,Wunderground v.1.15,2013-01-09 07:34:00,
2013-01-09 01:39:00,58.6,57.8,30.08,North,8,2.0,2.0,97,0.14,,,0.11,Wunderground v.1.15,2013-01-09 07:39:00,
2013-01-09 01:45:00,58.6,57.8,30.08,North,9,0.0,1.0,97,0.08,,,0.11,Wunderground v.1.15,2013-01-09 07:45:00,
2013-01-09 01:50:00,58.6,57.8,30.08,NE,44,0.0,0.0,97,0.06,,,0.12,Wunderground v.1.15,2013-01-09 07:50:00,
2013-01-09 01:55:00,58.6,57.8,30.08,NE,46,1.0,1.0,97,0.12,,,0.13,Wunderground v.1.15,2013-01-09 07:55:00,
2013-01-09 02:00:00,58.6,57.8,30.07,NW,323,0.0,0.0,97,0.15,,,0.15,Wunderground v.1.15,2013-01-09 08:00:00,
2013-01-09 02:05:00,58.5,57.7,30.08,NW,322,0.0,0.0,97,0.17,,,0.16,Wunderground v.1.15,2013-01-09 08:05:00,
2013-01-09 02:10:00,58.6,57.8,30.08,NNW,347,0.0,0.0,97,0.25,,,0.18,Wunderground v.1.15,2013-01-09 08:10:00,
2013-01-09 02:15:00,58.6,57.8,30.08,NNW,330,0.0,2.0,97,0.28,,,0.20,Wunderground v.1.15,2013-01-09 08:15:00,
2013-01-09 02:20:00,58.6,57.8,30.08,NNE,33,2.0,2.0,97,0.24,,,0.22,Wunderground v.1.15,2013-01-09 08:20:00,
2013-01-09 02:25:00,58.5,57.7,30.08,NE,39,0.0,2.0,97,0.36,,,0.25,Wunderground v.1.15,2013-01-09 08:25:00,
2013-01-09 02:30:00,58.5,57.7,30.08,NE,38,0.0,0.0,97,0.32,,,0.27,Wunderground v.1.15,2013-01-09 08:30:00,
2013-01-09 05:02:00,57.1,56.3,30.07,NE,38,3.0,3.0,97,0.46,,,1.33,Wunderground v.1.15,2013-01-09 11:02:00,
2013-01-09 05:07:00,57.1,56.3,30.07,WNW,283,1.0,8.0,97,0.31,,,1.36,Wunderground v.1.15,2013-01-09 11:07:00,
2013-01-09 05:12:00,57.1,56.3,30.08,NE,53,3.0,4.0,97,1.33,,,1.42,Wunderground v.1.15,2013-01-09 11:12:00,
2013-01-09 05:25:00,57.1,56.3,30.08,NW,305,2.0,5.0,97,1.19,,,1.63,Wunderground v.1.15,2013-01-09 11:25:00,
2013-01-09 05:30:00,57.1,56.3,30.08,ENE,63,3.0,3.0,97,0.93,,,1.70,Wunderground v.1.15,2013-01-09 11:30:00,
2013-01-09 05:35:00,57.2,56.6,30.08,NNE,29,3.0,5.0,98,0.55,,,1.75,Wunderground v.1.15,2013-01-09 11:35:00,
2013-01-09 05:40:00,57.1,56.5,30.08,NW,304,1.0,5.0,98,0.36,,,1.78,Wunderground v.1.15,2013-01-09 11:40:00,
2013-01-09 05:45:00,57.2,56.6,30.08,NNE,30,2.0,5.0,98,0.52,,,1.81,Wunderground v.1.15,2013-01-09 11:45:00,
2013-01-09 05:50:00,57.2,56.6,30.08,ENE,76,0.0,4.0,98,0.31,,,1.84,Wunderground v.1.15,2013-01-09 11:50:00,
2013-01-09 05:55:00,57.2,56.6,30.08,NW,314,0.0,4.0,98,0.34,,,1.87,Wunderground v.1.15,2013-01-09 11:55:00,
2013-01-09 06:01:00,57.2,56.6,30.07,East,80,1.0,3.0,98,0.30,,,1.90,Wunderground v.1.15,2013-01-09 12:01:00,
2013-01-09 06:06:00,57.2,56.6,30.08,NW,308,0.0,5.0,98,0.16,,,1.92,Wunderground v.1.15,2013-01-09 12:06:00,
2013-01-09 06:11:00,57.2,56.6,30.08,NW,312,2.0,6.0,98,0.10,,,1.92,Wunderground v.1.15,2013-01-09 12:11:00,
2013-01-09 06:16:00,57.3,56.7,30.08,NE,38,1.0,7.0,98,0.08,,,1.93,Wunderground v.1.15,2013-01-09 12:16:00,
2013-01-09 06:21:00,57.3,56.7,30.08,NE,44,2.0,6.0,98,0.55,,,1.97,Wunderground v.1.15,2013-01-09 12:21:00,
2013-01-09 06:26:00,57.4,56.8,30.08,North,4,0.0,6.0,98,0.40,,,2.01,Wunderground v.1.15,2013-01-09 12:26:00,
2013-01-09 06:31:00,57.4,56.8,30.08,East,83,1.0,3.0,98,0.27,,,2.03,Wunderground v.1.15,2013-01-09 12:31:00,
2013-01-09 06:36:00,57.4,56.8,30.08,NE,53,1.0,4.0,98,0.17,,,2.04,Wunderground v.1.15,2013-01-09 12:36:00,
2013-01-09 06:41:00,57.4,56.8,30.08,ENE,67,2.0,2.0,98,0.20,,,2.06,Wunderground v.1.15,2013-01-09 12:41:00,
2013-01-09 06:46:00,57.5,56.9,30.08,NE,44,0.0,7.0,98,0.10,,,2.06,Wunderground v.1.15,2013-01-09 12:46:00,
2013-01-09 06:51:00,57.5,56.9,30.08,NNE,23,1.0,3.0,98,0.09,,,2.07,Wunderground v.1.15,2013-01-09 12:51:00,
2013-01-09 06:56:00,57.5,56.9,30.08,ENE,78,4.0,4.0,98,0.07,,,2.07,Wunderground v.1.15,2013-01-09 12:56:00,
2013-01-09 07:01:00,57.6,57.0,30.08,NNW,330,1.0,4.0,98,0.04,,,2.07,Wunderground v.1.15,2013-01-09 13:01:00,
2013-01-09 07:06:00,57.5,56.9,30.08,NE,42,2.0,4.0,98,0.04,,,2.08,Wunderground v.1.15,2013-01-09 13:06:00,
2013-01-09 07:11:00,57.6,57.0,30.08,East,95,3.0,5.0,98,0.04,,,2.08,Wunderground v.1.15,2013-01-09 13:11:00,
2013-01-09 07:16:00,57.6,57.0,30.08,NNE,30,1.0,5.0,98,0.06,,,2.09,Wunderground v.1.15,2013-01-09 13:16:00,
2013-01-09 07:21:00,57.6,57.0,30.08,NNW,345,4.0,4.0,98,0.06,,,2.09,Wunderground v.1.15,2013-01-09 13:21:00,
2013-01-09 07:26:00,57.6,57.0,30.09,NE,38,2.0,4.0,98,0.05,,,2.09,Wunderground v.1.15,2013-01-09 13:26:00,
2013-01-09 07:31:00,57.7,57.1,30.09,NW,310,2.0,4.0,98,0.00,,,2.09,Wunderground v.1.15,2013-01-09 13:31:00,
2013-01-09 07:36:00,57.7,57.1,30.10,East,79,1.0,7.0,98,0.00,,,2.09,Wunderground v.1.15,2013-01-09 13:36:00,
2013-01-09 07:41:00,57.7,57.1,30.10,SE,125,0.0,2.0,98,0.00,,,2.09,Wunderground v.1.15,2013-01-09 13:41:00,
2013-01-09 07:46:00,57.8,57.2,30.10,NNE,12,1.0,3.0,98,0.00,,,2.10,Wunderground v.1.15,2013-01-09 13:46:00,
2013-01-09 07:51:00,57.8,57.2,30.11,ENE,70,2.0,3.0,98,0.09,,,2.11,Wunderground v.1.15,2013-01-09 13:51:00,
2013-01-09 07:56:00,57.8,57.2,30.11,NE,55,5.0,5.0,98,0.13,,,2.12,Wunderground v.1.15,2013-01-09 13:56:00,
2013-01-09 08:02:00,57.8,57.2,30.11,ENE,76,1.0,2.0,98,0.08,,,2.12,Wunderground v.1.15,2013-01-09 14:02:00,
2013-01-09 08:07:00,57.8,57.2,30.11,NE,38,2.0,3.0,98,0.07,,,2.13,Wunderground v.1.15,2013-01-09 14:07:00,
2013-01-09 08:12:00,57.8,57.2,30.11,NE,44,0.0,4.0,98,0.07,,,2.14,Wunderground v.1.15,2013-01-09 14:12:00,
2013-01-09 08:17:00,57.8,57.2,30.11,ENE,63,4.0,5.0,98,0.07,,,2.14,Wunderground v.1.15,2013-01-09 14:17:00,
2013-01-09 08:22:00,57.7,57.1,30.11,NE,41,1.0,5.0,98,0.06,,,2.14,Wunderground v.1.15,2013-01-09 14:22:00,
2013-01-09 08:27:00,57.8,57.2,30.11,NE,39,3.0,6.0,98,0.05,,,2.15,Wunderground v.1.15,2013-01-09 14:27:00,
2013-01-09 08:32:00,57.7,57.1,30.11,ENE,67,2.0,5.0,98,0.05,,,2.15,Wunderground v.1.15,2013-01-09 14:32:00,
2013-01-09 08:37:00,57.7,57.1,30.12,East,86,1.0,5.0,98,0.04,,,2.15,Wunderground v.1.15,2013-01-09 14:37:00,
2013-01-09 08:42:00,57.7,57.1,30.12,NNW,345,1.0,3.0,98,0.04,,,2.16,Wunderground v.1.15,2013-01-09 14:42:00,
2013-01-09 08:47:00,57.8,57.2,30.13,NNE,12,0.0,3.0,98,0.04,,,2.16,Wunderground v.1.15,2013-01-09 14:47:00,
2013-01-09 08:52:00,57.8,57.2,30.13,NNE,33,0.0,1.0,98,0.06,,,2.17,Wunderground v.1.15,2013-01-09 14:52:00,
2013-01-09 08:57:00,57.8,57.2,30.13,NE,49,0.0,2.0,98,0.08,,,2.18,Wunderground v.1.15,2013-01-09 14:57:00,
2013-01-09 09:02:00,57.8,57.2,30.13,NW,304,0.0,1.0,98,0.08,,,2.18,Wunderground v.1.15,2013-01-09 15:02:00,
2013-01-09 09:07:00,57.8,57.2,30.13,ENE,64,2.0,2.0,98,0.06,,,2.18,Wunderground v.1.15,2013-01-09 15:07:00,
2013-01-09 09:12:00,57.9,57.3,30.13,NE,49,2.0,3.0,98,0.04,,,2.18,Wunderground v.1.15,2013-01-09 15:12:00,
2013-01-09 09:17:00,57.9,57.3,30.13,ESE,103,1.0,3.0,98,0.00,,,2.19,Wunderground v.1.15,2013-01-09 15:17:00,
2013-01-09 09:22:00,58.0,57.4,30.13,NE,50,1.0,4.0,98,0.00,,,2.19,Wunderground v.1.15,2013-01-09 15:22:00,
2013-01-09 09:27:00,58.0,57.4,30.14,ENE,77,0.0,6.0,98,0.07,,,2.20,Wunderground v.1.15,2013-01-09 15:27:00,
2013-01-09 09:32:00,58.1,57.5,30.14,NNE,30,1.0,1.0,98,0.07,,,2.20,Wunderground v.1.15,2013-01-09 15:32:00,
2013-01-09 09:37:00,58.1,57.5,30.14,East,96,0.0,3.0,98,0.04,,,2.20,Wunderground v.1.15,2013-01-09 15:37:00,
2013-01-09 09:42:00,58.2,57.6,30.14,ESE,102,0.0,3.0,98,0.04,,,2.21,Wunderground v.1.15,2013-01-09 15:42:00,
2013-01-09 09:47:00,58.3,57.7,30.15,NE,53,1.0,5.0,98,0.04,,,2.21,Wunderground v.1.15,2013-01-09 15:47:00,
2013-01-09 09:52:00,58.3,57.7,30.15,ENE,77,0.0,2.0,98,0.08,,,2.22,Wunderground v.1.15,2013-01-09 15:52:00,
2013-01-09 09:57:00,58.4,57.8,30.14,ENE,64,0.0,5.0,98,0.07,,,2.23,Wunderground v.1.15,2013-01-09 15:57:00,
2013-01-09 10:02:00,58.4,57.8,30.14,NE,36,1.0,6.0,98,0.07,,,2.23,Wunderground v.1.15,2013-01-09 16:02:00,
2013-01-09 10:07:00,58.5,57.9,30.14,ENE,77,4.0,8.0,98,0.08,,,2.24,Wunderground v.1.15,2013-01-09 16:07:00,
2013-01-09 10:12:00,58.6,58.0,30.14,ENE,76,1.0,4.0,98,0.10,,,2.25,Wunderground v.1.15,2013-01-09 16:12:00,
2013-01-09 10:17:00,58.6,58.0,30.14,NE,44,3.0,5.0,98,0.11,,,2.26,Wunderground v.1.15,2013-01-09 16:17:00,
2013-01-09 10:22:00,58.7,58.1,30.14,NE,49,2.0,8.0,98,0.12,,,2.27,Wunderground v.1.15,2013-01-09 16:22:00,
2013-01-09 10:27:00,58.7,58.1,30.13,NE,53,0.0,8.0,98,0.12,,,2.28,Wunderground v.1.15,2013-01-09 16:27:00,
2013-01-09 10:32:00,58.8,58.2,30.13,NE,49,2.0,3.0,98,0.13,,,2.29,Wunderground v.1.15,2013-01-09 16:32:00,
2013-01-09 10:37:00,58.9,58.3,30.13,East,84,2.0,8.0,98,0.12,,,2.30,Wunderground v.1.15,2013-01-09 16:37:00,
2013-01-09 10:42:00,58.9,58.3,30.13,North,9,2.0,4.0,98,0.12,,,2.31,Wunderground v.1.15,2013-01-09 16:42:00,
2013-01-09 10:47:00,59.0,58.4,30.13,ENE,58,0.0,4.0,98,0.10,,,2.32,Wunderground v.1.15,2013-01-09 16:47:00,
2013-01-09 10:52:00,59.1,58.5,30.12,NNW,341,1.0,5.0,98,0.10,,,2.33,Wunderground v.1.15,2013-01-09 16:52:00,
2013-01-09 10:57:00,59.2,58.6,30.12,NE,44,1.0,7.0,98,0.10,,,2.33,Wunderground v.1.15,2013-01-09 16:57:00,
2013-01-09 11:02:00,59.2,58.6,30.12,East,82,4.0,4.0,98,0.11,,,2.34,Wunderground v.1.15,2013-01-09 17:02:00,
2013-01-09 11:07:00,59.3,58.7,30.11,NE,40,1.0,5.0,98,0.07,,,2.35,Wunderground v.1.15,2013-01-09 17:07:00,
2013-01-09 11:12:00,59.3,58.7,30.11,NE,42,3.0,5.0,98,0.07,,,2.35,Wunderground v.1.15,2013-01-09 17:12:00,
2013-01-09 11:17:00,59.4,58.8,30.11,NNE,30,3.0,8.0,98,0.07,,,2.36,Wunderground v.1.15,2013-01-09 17:17:00,
2013-01-09 11:22:00,59.4,58.8,30.10,NE,50,5.0,5.0,98,0.09,,,2.37,Wunderground v.1.15,2013-01-09 17:22:00,
2013-01-09 11:27:00,59.5,58.9,30.10,NE,39,3.0,8.0,98,0.16,,,2.39,Wunderground v.1.15,2013-01-09 17:27:00,
2013-01-09 11:32:00,59.5,58.9,30.10,East,99,1.0,3.0,98,0.11,,,2.39,Wunderground v.1.15,2013-01-09 17:32:00,
2013-01-09 11:37:00,59.5,58.9,30.11,East,82,1.0,6.0,98,0.11,,,2.40,Wunderground v.1.15,2013-01-09 17:37:00,
2013-01-09 11:43:00,59.6,59.0,30.11,ENE,61,3.0,5.0,98,0.10,,,2.41,Wunderground v.1.15,2013-01-09 17:43:00,
2013-01-09 11:48:00,59.6,59.0,30.11,East,88,5.0,8.0,98,0.07,,,2.41,Wunderground v.1.15,2013-01-09 17:48:00,
2013-01-09 11:53:00,59.7,59.1,30.10,NE,53,8.0,8.0,98,0.07,,,2.42,Wunderground v.1.15,2013-01-09 17:53:00,
2013-01-09 11:58:00,59.7,59.1,30.10,NE,50,3.0,9.0,98,0.08,,,2.43,Wunderground v.1.15,2013-01-09 17:58:00,
2013-01-09 12:03:00,59.8,59.2,30.10,North,11,5.0,7.0,98,0.09,,,2.44,Wunderground v.1.15,2013-01-09 18:03:00,
2013-01-09 12:08:00,59.8,59.2,30.10,ESE,114,1.0,7.0,98,0.09,,,2.44,Wunderground v.1.15,2013-01-09 18:08:00,
2013-01-09 12:13:00,59.9,59.3,30.10,NE,53,3.0,5.0,98,0.07,,,2.45,Wunderground v.1.15,2013-01-09 18:13:00,
2013-01-09 12:18:00,59.9,59.3,30.10,North,1,2.0,11.0,98,0.09,,,2.45,Wunderground v.1.15,2013-01-09 18:18:00,
2013-01-09 12:23:00,59.9,59.3,30.09,NNE,31,4.0,7.0,98,0.09,,,2.46,Wunderground v.1.15,2013-01-09 18:23:00,
2013-01-09 12:28:00,59.9,59.3,30.09,East,87,1.0,7.0,98,0.10,,,2.47,Wunderground v.1.15,2013-01-09 18:28:00,
2013-01-09 12:33:00,60.0,59.4,30.09,NE,44,1.0,6.0,98,0.10,,,2.48,Wunderground v.1.15,2013-01-09 18:33:00,
2013-01-09 12:38:00,60.0,59.4,30.09,ENE,77,0.0,6.0,98,0.12,,,2.49,Wunderground v.1.15,2013-01-09 18:38:00,
2013-01-09 12:41:00,60.0,59.4,30.09,NNW,330,2.0,4.0,98,0.12,,,2.50,Wunderground v.1.15,2013-01-09 18:41:00,
2013-01-09 12:42:00,60.0,59.4,30.09,NE,44,6.0,6.0,98,0.12,,,2.50,Wunderground v.1.15,2013-01-09 18:42:00,
2013-01-09 12:44:00,59.9,59.3,30.09,ENE,72,5.0,6.0,98,0.12,,,2.50,Wunderground v.1.15,2013-01-09 18:44:00,
2013-01-09 12:48:00,60.0,59.4,30.09,NE,53,2.0,6.0,98,0.12,,,2.51,Wunderground v.1.15,2013-01-09 18:48:00,
2013-01-09 12:49:00,60.0,59.4,30.09,ENE,67,2.0,6.0,98,0.12,,,2.51,Wunderground v.1.15,2013-01-09 18:49:00,
2013-01-09 12:54:00,60.0,59.4,30.09,ENE,67,2.0,6.0,98,0.14,,,2.52,Wunderground v.1.15,2013-01-09 18:54:00,
2013-01-09 12:59:00,60.0,59.4,30.08,NE,42,2.0,9.0,98,0.06,,,2.52,Wunderground v.1.15,2013-01-09 18:59:00,
2013-01-09 13:04:00,60.1,59.5,30.08,NNE,32,2.0,4.0,98,0.06,,,2.53,Wunderground v.1.15,2013-01-09 19:04:00,
2013-01-09 13:09:00,60.1,59.5,30.08,NNE,14,2.0,7.0,98,0.06,,,2.54,Wunderground v.1.15,2013-01-09 19:09:00,
2013-01-09 13:14:00,60.0,59.4,30.07,ENE,58,3.0,6.0,98,0.06,,,2.54,Wunderground v.1.15,2013-01-09 19:14:00,
2013-01-09 13:19:00,60.0,59.4,30.06,East,79,3.0,6.0,98,0.07,,,2.55,Wunderground v.1.15,2013-01-09 19:19:00,
2013-01-09 13:24:00,60.1,59.5,30.06,East,85,7.0,9.0,98,0.15,,,2.56,Wunderground v.1.15,2013-01-09 19:24:00,
2013-01-09 13:29:00,60.0,59.4,30.06,NE,50,6.0,9.0,98,0.12,,,2.57,Wunderground v.1.15,2013-01-09 19:29:00,
2013-01-09 13:34:00,60.1,59.5,30.05,SSE,148,2.0,12.0,98,0.09,,,2.58,Wunderground v.1.15,2013-01-09 19:34:00,
2013-01-09 13:39:00,60.1,59.5,30.05,ESE,103,4.0,12.0,98,0.09,,,2.58,Wunderground v.1.15,2013-01-09 19:39:00,
2013-01-09 13:44:00,60.2,59.6,30.05,East,86,8.0,10.0,98,0.08,,,2.59,Wunderground v.1.15,2013-01-09 19:44:00,
2013-01-09 13:49:00,60.2,59.6,30.04,ENE,63,3.0,10.0,98,0.07,,,2.59,Wunderground v.1.15,2013-01-09 19:49:00,
2013-01-09 13:54:00,60.3,59.7,30.04,ENE,72,4.0,10.0,98,0.05,,,2.60,Wunderground v.1.15,2013-01-09 19:54:00,
2013-01-09 13:59:00,60.4,59.8,30.03,NE,55,7.0,10.0,98,0.05,,,2.60,Wunderground v.1.15,2013-01-09 19:59:00,
2013-01-09 14:04:00,60.4,59.8,30.03,East,84,2.0,9.0,98,0.05,,,2.60,Wunderground v.1.15,2013-01-09 20:04:00,
2013-01-09 14:09:00,60.4,59.8,30.03,NE,55,9.0,11.0,98,0.04,,,2.60,Wunderground v.1.15,2013-01-09 20:09:00,
2013-01-09 14:14:00,60.5,59.9,30.04,ENE,63,4.0,9.0,98,0.00,,,2.60,Wunderground v.1.15,2013-01-09 20:14:00,
2013-01-09 14:19:00,60.5,59.9,30.04,ENE,63,3.0,10.0,98,0.00,,,2.60,Wunderground v.1.15,2013-01-09 20:19:00,
2013-01-09 14:24:00,60.5,59.9,30.06,ENE,70,5.0,9.0,98,0.00,,,2.60,Wunderground v.1.15,2013-01-09 20:24:00,
2013-01-09 14:29:00,60.6,60.0,30.06,NE,52,5.0,9.0,98,0.00,,,2.60,Wunderground v.1.15,2013-01-09 20:29:00,
2013-01-09 14:34:00,60.6,60.0,30.06,ENE,72,4.0,10.0,98,0.00,,,2.61,Wunderground v.1.15,2013-01-09 20:34:00,
2013-01-09 14:39:00,60.6,60.0,30.06,ENE,63,4.0,10.0,98,0.00,,,2.61,Wunderground v.1.15,2013-01-09 20:39:00,
2013-01-09 14:45:00,60.6,60.0,30.06,ENE,61,2.0,6.0,98,0.07,,,2.62,Wunderground v.1.15,2013-01-09 20:45:00,
2013-01-09 14:50:00,60.6,60.0,30.06,East,101,5.0,5.0,98,0.07,,,2.63,Wunderground v.1.15,2013-01-09 20:50:00,
2013-01-09 14:55:00,60.6,60.0,30.06,East,94,2.0,7.0,98,0.11,,,2.64,Wunderground v.1.15,2013-01-09 20:55:00,
2013-01-09 15:00:00,60.6,60.0,30.06,NE,48,3.0,4.0,98,0.16,,,2.65,Wunderground v.1.15,2013-01-09 21:00:00,
2013-01-09 15:05:00,60.6,60.0,30.06,NE,53,5.0,6.0,98,0.15,,,2.66,Wunderground v.1.15,2013-01-09 21:05:00,
2013-01-09 15:10:00,60.6,60.0,30.06,SE,135,4.0,4.0,98,0.15,,,2.67,Wunderground v.1.15,2013-01-09 21:10:00,
2013-01-09 15:15:00,60.6,60.0,30.05,NE,38,5.0,7.0,98,0.18,,,2.69,Wunderground v.1.15,2013-01-09 21:15:00,
2013-01-09 15:20:00,60.6,60.0,30.05,East,87,6.0,7.0,98,0.17,,,2.70,Wunderground v.1.15,2013-01-09 21:20:00,
2013-01-09 15:25:00,60.7,60.1,30.06,NE,42,0.0,7.0,98,0.12,,,2.71,Wunderground v.1.15,2013-01-09 21:25:00,
2013-01-09 15:30:00,60.7,60.1,30.06,NNW,328,2.0,5.0,98,0.10,,,2.72,Wunderground v.1.15,2013-01-09 21:30:00,
2013-01-09 15:35:00,60.7,60.1,30.06,NNE,33,5.0,7.0,98,0.11,,,2.73,Wunderground v.1.15,2013-01-09 21:35:00,
2013-01-09 15:40:00,60.8,60.2,30.06,ESE,109,4.0,4.0,98,0.10,,,2.74,Wunderground v.1.15,2013-01-09 21:40:00,
2013-01-09 15:45:00,60.8,60.2,30.07,ENE,75,5.0,6.0,98,0.11,,,2.75,Wunderground v.1.15,2013-01-09 21:45:00,
2013-01-09 15:50:00,60.8,60.2,30.07,ENE,61,4.0,9.0,98,0.13,,,2.76,Wunderground v.1.15,2013-01-09 21:50:00,
2013-01-09 15:56:00,60.9,60.3,30.08,ENE,58,6.0,9.0,98,0.12,,,2.77,Wunderground v.1.15,2013-01-09 21:56:00,
2013-01-09 16:01:00,60.9,60.3,30.08,NE,46,4.0,4.0,98,0.16,,,2.78,Wunderground v.1.15,2013-01-09 22:01:00,
2013-01-09 16:06:00,61.0,60.4,30.08,East,86,1.0,8.0,98,0.20,,,2.80,Wunderground v.1.15,2013-01-09 22:06:00,
2013-01-09 16:11:00,61.1,60.5,30.08,NE,50,3.0,3.0,98,0.15,,,2.81,Wunderground v.1.15,2013-01-09 22:11:00,
2013-01-09 16:16:00,61.1,60.5,30.08,East,95,1.0,3.0,98,0.15,,,2.82,Wunderground v.1.15,2013-01-09 22:16:00,
2013-01-09 16:21:00,61.0,60.4,30.08,East,82,2.0,3.0,98,0.14,,,2.83,Wunderground v.1.15,2013-01-09 22:21:00,
2013-01-09 16:26:00,61.1,60.5,30.08,East,96,2.0,4.0,98,0.13,,,2.84,Wunderground v.1.15,2013-01-09 22:26:00,
2013-01-09 16:31:00,61.1,60.5,30.08,East,94,2.0,3.0,98,0.12,,,2.85,Wunderground v.1.15,2013-01-09 22:31:00,
2013-01-09 16:36:00,61.1,60.5,30.08,NE,44,2.0,5.0,98,0.12,,,2.86,Wunderground v.1.15,2013-01-09 22:36:00,
2013-01-09 16:41:00,61.1,60.5,30.08,ENE,72,2.0,2.0,98,0.08,,,2.87,Wunderground v.1.15,2013-01-09 22:41:00,
2013-01-09 16:46:00,61.1,60.5,30.08,NE,56,2.0,6.0,98,0.08,,,2.87,Wunderground v.1.15,2013-01-09 22:46:00,
2013-01-09 16:51:00,61.1,60.5,30.08,NNE,33,1.0,3.0,98,0.06,,,2.88,Wunderground v.1.15,2013-01-09 22:51:00,
2013-01-09 16:56:00,61.1,60.5,30.07,ENE,72,0.0,3.0,98,0.06,,,2.88,Wunderground v.1.15,2013-01-09 22:56:00,
2013-01-09 17:01:00,61.1,60.5,30.07,East,97,0.0,2.0,98,0.05,,,2.88,Wunderground v.1.15,2013-01-09 23:01:00,
2013-01-09 17:06:00,61.0,60.4,30.07,ENE,61,2.0,6.0,98,0.04,,,2.89,Wunderground v.1.15,2013-01-09 23:06:00,
2013-01-09 17:11:00,61.0,60.4,30.06,ENE,67,3.0,7.0,98,0.04,,,2.89,Wunderground v.1.15,2013-01-09 23:11:00,
2013-01-09 17:16:00,61.0,60.4,30.06,NE,50,2.0,7.0,98,0.04,,,2.89,Wunderground v.1.15,2013-01-09 23:16:00,
2013-01-09 17:21:00,60.9,60.3,30.06,ENE,58,6.0,6.0,98,0.00,,,2.89,Wunderground v.1.15,2013-01-09 23:21:00,
2013-01-09 17:26:00,60.9,60.3,30.05,NE,56,2.0,9.0,98,0.00,,,2.89,Wunderground v.1.15,2013-01-09 23:26:00,
2013-01-09 17:31:00,60.9,60.3,30.04,ENE,72,2.0,6.0,98,0.00,,,2.89,Wunderground v.1.15,2013-01-09 23:31:00,
2013-01-09 17:36:00,60.8,60.2,30.02,North,357,3.0,8.0,98,0.00,,,2.89,Wunderground v.1.15,2013-01-09 23:36:00,
2013-01-09 17:41:00,60.8,60.2,30.02,East,96,3.0,3.0,98,0.00,,,2.89,Wunderground v.1.15,2013-01-09 23:41:00,
2013-01-09 17:47:00,60.7,60.1,30.03,East,79,1.0,7.0,98,0.00,,,2.89,Wunderground v.1.15,2013-01-09 23:47:00,
2013-01-09 17:52:00,60.5,59.9,30.02,NE,53,6.0,9.0,98,0.00,,,2.89,Wunderground v.1.15,2013-01-09 23:52:00,
2013-01-09 17:57:00,60.4,59.8,30.02,NE,42,6.0,11.0,98,0.00,,,2.89,Wunderground v.1.15,2013-01-09 23:57:00,
2013-01-09 18:02:00,60.3,59.7,30.03,East,99,7.0,14.0,98,0.00,,,2.89,Wunderground v.1.15,2013-01-10 00:02:00,
2013-01-09 18:07:00,60.3,59.7,30.04,ENE,72,6.0,14.0,98,0.00,,,2.89,Wunderground v.1.15,2013-01-10 00:07:00,
2013-01-09 18:12:00,60.3,59.7,30.04,NE,55,5.0,11.0,98,0.00,,,2.89,Wunderground v.1.15,2013-01-10 00:12:00,
2013-01-09 18:17:00,60.3,59.7,30.03,NE,52,6.0,12.0,98,0.00,,,2.89,Wunderground v.1.15,2013-01-10 00:17:00,
2013-01-09 18:22:00,60.3,59.7,30.03,ENE,58,11.0,14.0,98,0.00,,,2.89,Wunderground v.1.15,2013-01-10 00:22:00,
2013-01-09 18:27:00,60.3,59.7,30.02,NE,35,6.0,14.0,98,0.00,,,2.89,Wunderground v.1.15,2013-01-10 00:27:00,
2013-01-09 18:32:00,60.4,59.8,30.04,NE,55,2.0,10.0,98,0.00,,,2.89,Wunderground v.1.15,2013-01-10 00:32:00,
2013-01-09 18:37:00,60.5,59.9,30.05,NE,55,2.0,13.0,98,0.00,,,2.89,Wunderground v.1.15,2013-01-10 00:37:00,
2013-01-09 18:42:00,60.5,59.9,30.04,ENE,70,4.0,11.0,98,0.00,,,2.89,Wunderground v.1.15,2013-01-10 00:42:00,
2013-01-09 18:47:00,60.6,60.0,30.05,NNE,33,2.0,11.0,98,0.00,,,2.89,Wunderground v.1.15,2013-01-10 00:47:00,
2013-01-09 18:52:00,60.7,60.1,30.04,NNE,12,8.0,13.0,98,0.00,,,2.89,Wunderground v.1.15,2013-01-10 00:52:00,
2013-01-09 18:57:00,60.8,60.2,30.04,East,80,4.0,21.0,98,0.00,,,2.89,Wunderground v.1.15,2013-01-10 00:57:00,
2013-01-09 19:02:00,60.8,60.2,30.03,ENE,77,7.0,13.0,98,0.00,,,2.89,Wunderground v.1.15,2013-01-10 01:02:00,
2013-01-09 19:07:00,60.9,60.3,30.01,ENE,63,4.0,14.0,98,0.00,,,2.89,Wunderground v.1.15,2013-01-10 01:07:00,
2013-01-09 19:12:00,61.0,60.4,30.01,ESE,103,7.0,13.0,98,0.00,,,2.89,Wunderground v.1.15,2013-01-10 01:12:00,
2013-01-09 19:17:00,61.2,60.6,30.02,East,79,6.0,17.0,98,0.00,,,2.89,Wunderground v.1.15,2013-01-10 01:17:00,
2013-01-09 19:22:00,61.4,60.8,30.02,NE,51,3.0,11.0,98,0.00,,,2.89,Wunderground v.1.15,2013-01-10 01:22:00,
2013-01-09 19:27:00,61.5,60.9,30.02,ENE,64,5.0,11.0,98,0.00,,,2.89,Wunderground v.1.15,2013-01-10 01:27:00,
2013-01-09 19:32:00,61.6,61.0,30.02,NE,44,13.0,13.0,98,0.00,,,2.89,Wunderground v.1.15,2013-01-10 01:32:00,
2013-01-09 19:37:00,61.6,61.0,30.02,East,95,14.0,15.0,98,0.00,,,2.89,Wunderground v.1.15,2013-01-10 01:37:00,
2013-01-09 19:42:00,61.7,61.1,30.03,ENE,77,9.0,15.0,98,0.00,,,2.89,Wunderground v.1.15,2013-01-10 01:42:00,
2013-01-09 19:47:00,61.8,61.2,30.03,NE,46,6.0,15.0,98,0.00,,,2.89,Wunderground v.1.15,2013-01-10 01:47:00,
2013-01-09 19:52:00,61.8,60.9,30.02,ENE,64,6.0,12.0,97,0.00,,,2.89,Wunderground v.1.15,2013-01-10 01:52:00,
2013-01-09 19:57:00,61.9,61.0,30.03,NE,50,5.0,17.0,97,0.00,,,2.89,Wunderground v.1.15,2013-01-10 01:57:00,
2013-01-09 20:02:00,61.9,61.0,30.02,ENE,70,12.0,14.0,97,0.00,,,2.89,Wunderground v.1.15,2013-01-10 02:02:00,
2013-01-09 20:07:00,62.0,61.1,30.02,East,83,4.0,14.0,97,0.00,,,2.89,Wunderground v.1.15,2013-01-10 02:07:00,
2013-01-09 20:12:00,62.0,61.1,30.03,East,98,7.0,10.0,97,0.00,,,0.00,Wunderground v.1.15,2013-01-10 02:12:00,
2013-01-09 20:17:00,62.0,61.1,30.03,NNE,30,6.0,11.0,97,0.00,,,0.00,Wunderground v.1.15,2013-01-10 02:17:00,
2013-01-09 20:23:00,62.0,61.1,30.03,ENE,72,5.0,8.0,97,0.00,,,0.00,Wunderground v.1.15,2013-01-10 02:23:00,
2013-01-09 20:28:00,62.0,61.1,30.03,ESE,112,3.0,9.0,97,0.00,,,0.00,Wunderground v.1.15,2013-01-10 02:28:00,
2013-01-09 20:33:00,62.0,61.1,30.04,East,85,3.0,8.0,97,0.00,,,0.00,Wunderground v.1.15,2013-01-10 02:33:00,
2013-01-09 20:38:00,62.0,61.1,30.05,East,96,2.0,8.0,97,0.00,,,0.00,Wunderground v.1.15,2013-01-10 02:38:00,
2013-01-09 20:43:00,62.1,61.2,30.05,East,96,2.0,5.0,97,0.00,,,0.00,Wunderground v.1.15,2013-01-10 02:43:00,
2013-01-09 20:48:00,62.1,61.2,30.05,ENE,58,9.0,9.0,97,0.00,,,0.00,Wunderground v.1.15,2013-01-10 02:48:00,
2013-01-09 20:53:00,62.2,61.3,30.05,NE,53,6.0,6.0,97,0.00,,,0.00,Wunderground v.1.15,2013-01-10 02:53:00,
2013-01-09 20:58:00,62.2,61.3,30.06,East,83,2.0,7.0,97,0.00,,,0.00,Wunderground v.1.15,2013-01-10 02:58:00,
2013-01-09 21:03:00,62.2,61.3,30.06,East,82,1.0,6.0,97,0.00,,,0.00,Wunderground v.1.15,2013-01-10 03:03:00,
2013-01-09 21:08:00,62.3,61.4,30.07,ENE,61,1.0,6.0,97,0.00,,,0.00,Wunderground v.1.15,2013-01-10 03:08:00,
2013-01-09 21:13:00,62.3,61.4,30.06,ENE,67,4.0,4.0,97,0.00,,,0.00,Wunderground v.1.15,2013-01-10 03:13:00,
2013-01-09 21:18:00,62.3,61.4,30.06,East,80,4.0,7.0,97,0.00,,,0.00,Wunderground v.1.15,2013-01-10 03:18:00,
2013-01-09 21:23:00,62.3,61.4,30.06,ENE,70,1.0,3.0,97,0.00,,,0.00,Wunderground v.1.15,2013-01-10 03:23:00,
2013-01-09 21:28:00,62.3,61.4,30.07,East,84,4.0,5.0,97,0.00,,,0.00,Wunderground v.1.15,2013-01-10 03:28:00,
2013-01-09 21:33:00,62.3,61.4,30.07,East,84,1.0,3.0,97,0.00,,,0.00,Wunderground v.1.15,2013-01-10 03:33:00,
2013-01-09 21:38:00,62.3,61.4,30.07,NE,55,3.0,6.0,97,0.00,,,0.00,Wunderground v.1.15,2013-01-10 03:38:00,
2013-01-09 21:43:00,62.3,61.4,30.07,NNE,20,1.0,6.0,97,0.00,,,0.00,Wunderground v.1.15,2013-01-10 03:43:00,
2013-01-09 21:48:00,62.3,61.4,30.06,NE,46,0.0,6.0,97,0.00,,,0.00,Wunderground v.1.15,2013-01-10 03:48:00,
2013-01-09 21:53:00,62.2,61.3,30.07,ESE,108,0.0,2.0,97,0.00,,,0.00,Wunderground v.1.15,2013-01-10 03:53:00,
2013-01-09 21:58:00,62.2,61.3,30.07,NE,35,0.0,2.0,97,0.00,,,0.00,Wunderground v.1.15,2013-01-10 03:58:00,
2013-01-09 22:03:00,62.1,61.2,30.07,NE,39,0.0,2.0,97,0.00,,,0.01,Wunderground v.1.15,2013-01-10 04:03:00,
2013-01-09 22:08:00,62.1,61.2,30.07,East,86,1.0,2.0,97,0.00,,,0.01,Wunderground v.1.15,2013-01-10 04:08:00,
2013-01-09 22:13:00,62.1,61.2,30.07,ENE,78,0.0,1.0,97,0.00,,,0.01,Wunderground v.1.15,2013-01-10 04:13:00,
2013-01-09 22:18:00,62.1,61.2,30.06,NE,50,0.0,4.0,97,0.00,,,0.01,Wunderground v.1.15,2013-01-10 04:18:00,
2013-01-09 22:23:00,62.2,61.3,30.06,ENE,70,1.0,5.0,97,0.00,,,0.01,Wunderground v.1.15,2013-01-10 04:23:00,
2013-01-09 22:28:00,62.1,61.2,30.06,East,95,1.0,5.0,97,0.00,,,0.02,Wunderground v.1.15,2013-01-10 04:28:00,
2013-01-09 22:33:00,62.1,61.2,30.07,East,79,2.0,4.0,97,0.00,,,0.02,Wunderground v.1.15,2013-01-10 04:33:00,
2013-01-09 22:38:00,62.1,61.2,30.06,ENE,77,1.0,4.0,97,0.00,,,0.02,Wunderground v.1.15,2013-01-10 04:38:00,
2013-01-09 22:43:00,62.1,61.2,30.07,ENE,64,5.0,5.0,97,0.04,,,0.03,Wunderground v.1.15,2013-01-10 04:43:00,
2013-01-09 22:48:00,62.1,61.2,30.06,East,94,3.0,5.0,97,0.04,,,0.03,Wunderground v.1.15,2013-01-10 04:48:00,
2013-01-09 22:53:00,62.2,61.3,30.07,East,95,2.0,4.0,97,0.04,,,0.03,Wunderground v.1.15,2013-01-10 04:53:00,
2013-01-09 22:58:00,62.2,61.3,30.07,NE,35,1.0,5.0,97,0.00,,,0.04,Wunderground v.1.15,2013-01-10 04:58:00,
2013-01-09 23:00:00,62.2,61.3,30.07,ENE,72,3.0,5.0,97,0.00,,,0.04,Wunderground v.1.15,2013-01-10 05:00:00,
2013-01-09 23:06:00,62.2,61.3,30.07,ENE,69,2.0,6.0,97,0.00,,,0.04,Wunderground v.1.15,2013-01-10 05:06:00,
2013-01-09 23:11:00,62.2,61.3,30.06,ENE,58,2.0,4.0,97,0.00,,,0.04,Wunderground v.1.15,2013-01-10 05:11:00,
2013-01-09 23:16:00,62.2,61.3,30.06,East,84,1.0,5.0,97,0.00,,,0.04,Wunderground v.1.15,2013-01-10 05:16:00,
2013-01-09 23:21:00,62.2,61.3,30.06,East,96,1.0,2.0,97,0.00,,,0.04,Wunderground v.1.15,2013-01-10 05:21:00,
2013-01-09 23:26:00,62.2,61.6,30.06,East,89,3.0,4.0,98,0.00,,,0.04,Wunderground v.1.15,2013-01-10 05:26:00,
2013-01-09 23:31:00,62.2,61.6,30.06,NE,56,0.0,3.0,98,0.00,,,0.04,Wunderground v.1.15,2013-01-10 05:31:00,
2013-01-09 23:36:00,62.2,61.6,30.06,ENE,77,3.0,5.0,98,0.00,,,0.05,Wunderground v.1.15,2013-01-10 05:36:00,
2013-01-09 23:41:00,62.3,61.7,30.06,ENE,78,2.0,2.0,98,0.09,,,0.06,Wunderground v.1.15,2013-01-10 05:41:00,
2013-01-09 23:46:00,62.3,61.7,30.07,ENE,63,5.0,5.0,98,0.09,,,0.06,Wunderground v.1.15,2013-01-10 05:46:00,
2013-01-09 23:51:00,62.3,61.7,30.06,East,98,1.0,2.0,98,0.06,,,0.06,Wunderground v.1.15,2013-01-10 05:51:00,
2013-01-09 23:56:00,62.3,61.7,30.07,East,84,2.0,3.0,98,0.04,,,0.06,Wunderground v.1.15,2013-01-10 05:56:00,